Time;durP1;ratioP1;P1;durP2;ratioP2;P2;SDS_P1;SDS_P2;PMS_P1;PMS_P2;Temp;Humidity;BMP_temperature;BMP_pressure;BME280_temperature;BME280_humidity;BME280_pressure;Samples;Min_cycle;Max_cycle;Signal;HPM_P1;HPM_P2
2022/01/03 00:00:37;;;;;;;1.80;1.02;;;9.60;99.90;;;;;;5094460;28;20240;-71
2022/01/03 00:03:08;;;;;;;5.35;1.48;;;9.60;99.90;;;;;;5094034;28;20705;-72
2022/01/03 00:05:36;;;;;;;1.38;1.27;;;9.60;99.90;;;;;;5094384;28;20290;-71
2022/01/03 00:08:05;;;;;;;2.88;1.20;;;9.60;99.90;;;;;;5093305;28;20670;-71
2022/01/03 00:10:33;;;;;;;0.93;0.60;;;9.60;99.90;;;;;;5094245;28;20238;-71
2022/01/03 00:13:01;;;;;;;1.48;0.90;;;9.60;99.90;;;;;;5094201;28;20219;-72
2022/01/03 00:15:28;;;;;;;3.70;0.82;;;9.60;99.90;;;;;;5094255;28;20291;-70
2022/01/03 00:17:56;;;;;;;1.75;1.00;;;9.70;99.90;;;;;;5093916;28;20287;-70
2022/01/03 00:20:28;;;;;;;3.40;0.95;;;9.70;99.90;;;;;;5093940;28;20282;-72
2022/01/03 00:22:58;;;;;;;1.73;0.90;;;9.80;99.90;;;;;;5093561;28;20274;-70
2022/01/03 00:25:26;;;;;;;0.80;0.77;;;9.70;99.90;;;;;;5094035;28;20286;-70
2022/01/03 00:28:03;;;;;;;3.42;0.90;;;9.70;99.90;;;;;;5093881;28;20298;-70
2022/01/03 00:30:31;;;;;;;1.85;0.80;;;9.70;99.90;;;;;;5093976;28;20218;-70
2022/01/03 00:32:59;;;;;;;2.45;1.08;;;9.80;99.90;;;;;;5093887;28;20343;-70
2022/01/03 00:35:27;;;;;;;0.85;0.80;;;9.80;99.90;;;;;;5093917;28;20290;-70
2022/01/03 00:37:54;;;;;;;2.95;0.90;;;9.80;99.90;;;;;;5093639;28;20195;-70
2022/01/03 00:40:22;;;;;;;1.60;0.90;;;9.80;99.90;;;;;;5093802;28;20285;-70
2022/01/03 00:42:50;;;;;;;2.40;1.00;;;9.80;99.90;;;;;;5093506;28;20310;-70
2022/01/03 00:45:17;;;;;;;0.65;0.57;;;9.80;99.90;;;;;;5093699;28;20199;-70
2022/01/03 00:47:45;;;;;;;1.25;0.90;;;9.80;99.90;;;;;;5093753;28;20286;-70
2022/01/03 00:50:16;;;;;;;1.58;1.20;;;9.80;99.90;;;;;;5093628;28;20256;-70
2022/01/03 00:52:43;;;;;;;2.97;1.02;;;9.80;99.90;;;;;;5093518;28;20220;-69
2022/01/03 00:55:11;;;;;;;3.90;0.85;;;9.80;99.90;;;;;;5093310;28;20741;-69
2022/01/03 00:57:57;;;;;;;2.55;0.88;;;9.80;99.90;;;;;;5093299;28;20751;-69
2022/01/03 01:00:24;;;;;;;1.08;0.80;;;9.80;99.90;;;;;;5093621;28;20270;-69
2022/01/03 01:02:55;;;;;;;2.78;0.77;;;9.80;99.90;;;;;;5093436;28;20227;-69
2022/01/03 01:05:24;;;;;;;2.30;0.90;;;9.80;99.90;;;;;;5093333;28;20679;-69
2022/01/03 01:07:56;;;;;;;1.40;1.00;;;9.80;99.90;;;;;;5093602;28;20289;-69
2022/01/03 01:10:26;;;;;;;0.95;0.70;;;9.80;99.90;;;;;;5096242;28;20187;-69
2022/01/03 01:12:56;;;;;;;3.58;1.13;;;9.80;99.90;;;;;;5095247;28;20238;-69
2022/01/03 01:15:25;;;;;;;3.55;0.90;;;9.70;99.90;;;;;;5096920;28;20199;-68
2022/01/03 01:17:53;;;;;;;2.92;1.00;;;9.70;99.90;;;;;;5094202;28;20294;-68
2022/01/03 01:20:20;;;;;;;2.28;0.80;;;9.80;99.90;;;;;;5096377;28;20738;-68
2022/01/03 01:22:48;;;;;;;2.65;0.95;;;9.80;99.90;;;;;;5097087;28;20314;-69
2022/01/03 01:27:46;;;;;;;1.52;0.80;;;9.80;99.90;;;;;;5097087;28;20290;-69
2022/01/03 01:28:15;;;;;;;4.90;1.13;;;9.70;99.90;;;;;;5096906;28;20206;-69
2022/01/03 01:30:43;;;;;;;2.05;0.90;;;9.80;99.90;;;;;;5097394;28;20184;-69
2022/01/03 01:33:12;;;;;;;1.20;0.80;;;9.70;99.90;;;;;;5097237;28;20624;-69
2022/01/03 01:35:46;;;;;;;1.73;0.77;;;9.70;99.90;;;;;;5096962;28;20662;-69
2022/01/03 01:38:16;;;;;;;1.02;0.77;;;9.80;99.90;;;;;;5097329;28;20282;-69
2022/01/03 01:40:48;;;;;;;1.48;0.75;;;9.80;99.90;;;;;;5097345;28;20294;-69
2022/01/03 01:43:20;;;;;;;2.45;0.80;;;9.80;99.90;;;;;;5097106;28;20234;-69
2022/01/03 01:45:49;;;;;;;2.15;1.00;;;9.80;99.90;;;;;;5097165;28;20278;-69
2022/01/03 01:48:18;;;;;;;1.85;1.00;;;9.80;99.90;;;;;;5097104;28;20299;-69
2022/01/03 01:50:50;;;;;;;2.50;1.20;;;9.80;99.90;;;;;;5096962;28;20230;-69
2022/01/03 01:53:22;;;;;;;1.48;1.10;;;9.80;99.90;;;;;;5097241;28;20302;-70
2022/01/03 01:55:51;;;;;;;0.70;0.70;;;9.70;99.90;;;;;;5097510;28;20254;-70
2022/01/03 01:58:29;;;;;;;1.77;0.80;;;9.80;99.90;;;;;;5096834;28;20205;-70
2022/01/03 02:00:59;;;;;;;4.10;1.10;;;9.80;99.90;;;;;;5096657;28;20270;-71
2022/01/03 02:03:48;;;;;;;1.60;0.68;;;9.80;99.90;;;;;;5096658;28;20294;-70
2022/01/03 02:06:27;;;;;;;1.98;1.02;;;9.80;99.90;;;;;;5096659;28;20191;-70
2022/01/03 06:16:45;;;;;;;1.85;0.65;;;9.10;99.90;;;;;;5189553;22;20322;-72
2022/01/03 06:19:13;;;;;;;1.98;1.08;;;9.10;99.90;;;;;;5076348;28;20211;-72
2022/01/03 06:21:41;;;;;;;0.98;0.82;;;9.10;99.90;;;;;;5076123;28;20226;-72
2022/01/03 06:24:09;;;;;;;2.95;0.80;;;9.10;99.90;;;;;;5076117;28;20200;-72
2022/01/03 06:26:37;;;;;;;0.88;0.88;;;9.10;99.90;;;;;;5075679;28;20588;-72
2022/01/03 06:29:04;;;;;;;1.77;0.80;;;9.10;99.90;;;;;;5076059;28;20207;-73
2022/01/03 06:31:30;;;;;;;1.25;0.70;;;9.10;99.90;;;;;;5076500;28;20227;-69
2022/01/03 06:33:59;;;;;;;3.85;1.52;;;9.20;99.90;;;;;;5076037;28;20200;-69
2022/01/03 06:36:26;;;;;;;1.67;1.10;;;9.10;99.90;;;;;;5075459;28;20220;-69
2022/01/03 06:38:53;;;;;;;1.25;0.70;;;9.10;99.90;;;;;;5075849;28;20291;-69
2022/01/03 06:41:20;;;;;;;7.85;1.30;;;9.20;99.90;;;;;;5075772;28;20200;-69
2022/01/03 06:43:47;;;;;;;0.90;0.88;;;9.10;99.90;;;;;;5076206;28;20220;-68
2022/01/03 06:46:13;;;;;;;1.75;0.70;;;9.10;99.90;;;;;;5075666;28;20223;-68
2022/01/03 06:48:40;;;;;;;3.90;1.08;;;9.10;99.90;;;;;;5075586;28;20303;-69
2022/01/03 06:51:08;;;;;;;2.60;0.82;;;9.10;99.90;;;;;;5075623;28;20227;-69
2022/01/03 06:53:35;;;;;;;1.45;0.70;;;9.10;99.90;;;;;;5075599;28;20192;-69
2022/01/03 06:56:02;;;;;;;1.27;0.70;;;9.10;99.90;;;;;;5075489;28;20224;-70
2022/01/03 06:58:29;;;;;;;1.45;0.70;;;9.00;99.90;;;;;;5075545;28;20206;-70
2022/01/03 07:00:56;;;;;;;1.45;0.93;;;9.10;99.90;;;;;;5075559;28;20282;-69
2022/01/03 07:03:23;;;;;;;3.15;0.90;;;9.00;99.90;;;;;;5075098;28;20224;-69
2022/01/03 07:05:50;;;;;;;2.17;0.98;;;9.10;99.90;;;;;;5075546;28;20216;-69
2022/01/03 07:08:20;;;;;;;2.15;0.88;;;9.00;99.90;;;;;;5075118;28;20212;-69
2022/01/03 07:10:47;;;;;;;1.00;0.75;;;9.00;99.90;;;;;;5075573;28;20204;-69
2022/01/03 07:13:14;;;;;;;2.78;0.80;;;9.00;99.90;;;;;;5075446;28;20204;-68
2022/01/03 07:21:09;;;;;;;2.88;1.25;;;9.00;99.90;;;;;;5075053;28;20634;-69
2022/01/03 07:23:37;;;;;;;1.40;0.60;;;9.00;99.90;;;;;;5074631;28;20793;-69
2022/01/03 07:26:04;;;;;;;0.50;0.50;;;9.00;99.90;;;;;;5074580;28;20736;-69
2022/01/03 07:28:31;;;;;;;2.03;0.75;;;9.00;99.90;;;;;;5074622;28;20206;-69
2022/01/03 07:30:58;;;;;;;1.10;0.70;;;9.00;99.90;;;;;;5074553;28;20203;-67
2022/01/03 07:33:25;;;;;;;0.90;0.88;;;9.00;99.90;;;;;;5074321;28;20202;-68
2022/01/03 07:35:52;;;;;;;2.17;0.80;;;9.00;99.90;;;;;;5074371;28;20659;-68
2022/01/03 07:38:19;;;;;;;1.75;0.93;;;9.10;99.90;;;;;;5074346;28;20567;-68
2022/01/03 07:40:47;;;;;;;0.70;0.70;;;9.10;99.90;;;;;;5074272;28;20204;-68
2022/01/03 07:43:14;;;;;;;1.65;0.70;;;9.10;99.90;;;;;;5074547;28;20224;-68
2022/01/03 07:45:41;;;;;;;1.42;1.00;;;9.10;99.90;;;;;;5074517;28;20223;-68
2022/01/03 07:48:08;;;;;;;1.58;0.70;;;9.10;99.90;;;;;;5074537;28;20196;-68
2022/01/03 07:50:35;;;;;;;0.60;0.60;;;9.10;99.90;;;;;;5074478;28;20294;-68
2022/01/03 07:53:02;;;;;;;3.08;0.77;;;9.20;99.90;;;;;;5074443;28;20223;-68
2022/01/03 07:55:29;;;;;;;0.95;0.65;;;9.20;99.90;;;;;;5074368;28;20224;-68
2022/01/03 07:57:57;;;;;;;0.80;0.60;;;9.20;99.90;;;;;;5074162;28;20228;-68
2022/01/03 08:00:24;;;;;;;1.50;0.88;;;9.10;99.90;;;;;;5074416;28;20400;-68
2022/01/03 08:02:51;;;;;;;0.60;0.60;;;9.10;99.90;;;;;;5074265;28;20222;-68
2022/01/03 08:05:18;;;;;;;0.90;0.70;;;9.20;99.90;;;;;;5074205;28;20230;-68
2022/01/03 08:07:46;;;;;;;2.03;0.80;;;9.20;99.90;;;;;;5074535;28;20618;-68
2022/01/03 08:10:14;;;;;;;2.05;0.85;;;9.20;99.90;;;;;;5074162;28;20196;-68
2022/01/03 08:12:41;;;;;;;0.95;0.60;;;9.20;99.90;;;;;;5074186;28;20207;-68
2022/01/03 08:15:10;;;;;;;1.35;0.70;;;9.30;99.90;;;;;;5074309;28;20226;-69
2022/01/03 08:17:37;;;;;;;0.60;0.60;;;9.30;99.90;;;;;;5073670;28;20753;-69
2022/01/03 08:20:05;;;;;;;1.75;0.70;;;9.30;99.90;;;;;;5074111;28;20235;-70
2022/01/03 08:22:32;;;;;;;1.30;0.77;;;9.30;99.90;;;;;;5074061;28;20326;-70
2022/01/03 08:24:59;;;;;;;0.90;0.80;;;9.40;99.90;;;;;;5074045;28;20248;-69
2022/01/03 08:27:26;;;;;;;1.73;0.80;;;9.40;99.90;;;;;;5073492;28;20203;-69
2022/01/03 08:29:53;;;;;;;1.73;0.70;;;9.40;99.90;;;;;;5073960;28;20250;-70
2022/01/03 08:32:21;;;;;;;1.58;0.50;;;9.40;99.90;;;;;;5073570;28;20202;-70
2022/01/03 08:34:48;;;;;;;0.50;0.50;;;9.50;99.90;;;;;;5073544;28;20290;-70
2022/01/03 08:37:15;;;;;;;0.60;0.50;;;9.50;99.90;;;;;;5073718;28;20203;-70
2022/01/03 08:39:42;;;;;;;1.30;0.63;;;9.50;99.90;;;;;;5073760;28;20200;-70
2022/01/03 08:42:09;;;;;;;0.73;0.65;;;9.50;99.90;;;;;;5073583;28;20210;-70
2022/01/03 08:44:36;;;;;;;0.50;0.50;;;9.60;99.90;;;;;;5073951;28;20286;-69
2022/01/03 08:47:04;;;;;;;1.00;0.60;;;9.60;99.90;;;;;;5077193;28;20200;-69
2022/01/03 08:49:34;;;;;;;1.48;0.93;;;9.60;99.90;;;;;;5077154;28;20200;-69
2022/01/03 08:52:01;;;;;;;1.05;0.60;;;9.60;99.90;;;;;;5077717;28;20199;-70
2022/01/03 08:54:28;;;;;;;2.58;0.80;;;9.60;99.90;;;;;;5078070;28;20215;-69
2022/01/03 08:56:55;;;;;;;3.15;0.80;;;9.60;99.90;;;;;;5077810;28;20215;-70
2022/01/03 08:59:23;;;;;;;0.80;0.50;;;9.70;99.90;;;;;;5077887;28;20190;-68
2022/01/03 09:01:50;;;;;;;0.73;0.73;;;9.60;99.90;;;;;;5077459;28;20207;-69
2022/01/03 09:04:19;;;;;;;0.85;0.57;;;9.60;99.90;;;;;;5077044;28;20219;-67
2022/01/03 09:06:48;;;;;;;0.60;0.60;;;9.70;99.90;;;;;;5076924;28;20228;-69
2022/01/03 09:09:15;;;;;;;1.13;0.50;;;9.70;99.90;;;;;;5076453;28;20200;-68
2022/01/03 09:11:43;;;;;;;1.27;0.70;;;9.70;99.90;;;;;;5078640;28;20216;-67
2022/01/03 09:14:11;;;;;;;0.55;0.55;;;9.70;99.90;;;;;;5077290;28;20200;-66
2022/01/03 09:16:38;;;;;;;2.03;0.70;;;9.70;99.90;;;;;;5076706;28;20243;-67
2022/01/03 09:19:05;;;;;;;0.73;0.60;;;9.70;99.90;;;;;;5078827;28;20265;-68
2022/01/03 09:21:32;;;;;;;1.38;0.70;;;9.80;99.90;;;;;;5073907;28;20204;-68
2022/01/03 09:24:20;;;;;;;1.08;0.57;;;9.80;99.90;;;;;;5073105;28;20785;-68
2022/01/03 09:29:31;;;;;;;1.95;0.90;;;9.90;99.90;;;;;;5072993;28;20657;-68
2022/01/03 09:31:58;;;;;;;1.63;0.85;;;10.00;99.90;;;;;;5073091;28;20207;-68
2022/01/03 09:34:25;;;;;;;1.02;0.90;;;10.00;99.90;;;;;;5073698;28;20204;-69
2022/01/03 09:36:52;;;;;;;2.22;0.90;;;10.00;99.90;;;;;;5072900;28;20223;-68
2022/01/03 09:39:22;;;;;;;1.05;1.00;;;10.00;99.90;;;;;;5073842;28;20224;-72
2022/01/03 09:41:56;;;;;;;2.95;0.60;;;10.00;99.90;;;;;;5077756;28;20226;-72
2022/01/03 09:44:29;;;;;;;0.85;0.63;;;10.00;99.90;;;;;;5077123;28;20294;-72
2022/01/03 09:47:23;;;;;;;1.98;0.70;;;10.00;99.90;;;;;;5077000;28;20306;-68
2022/01/03 09:50:50;;;;;;;0.90;0.70;;;10.00;99.90;;;;;;5076181;28;20200;-69
2022/01/03 09:53:19;;;;;;;0.82;0.82;;;10.00;99.90;;;;;;5076750;28;20192;-72
2022/01/03 09:55:49;;;;;;;0.85;0.80;;;10.00;99.90;;;;;;5076328;28;20595;-71
2022/01/03 09:58:17;;;;;;;1.52;1.00;;;10.00;99.90;;;;;;5076782;28;20282;-70
2022/01/03 10:00:44;;;;;;;0.60;0.60;;;10.10;99.90;;;;;;5076894;28;20207;-71
2022/01/03 10:03:11;;;;;;;0.60;0.60;;;10.00;99.90;;;;;;5076718;28;20219;-73
2022/01/03 10:05:38;;;;;;;1.70;0.68;;;10.10;99.90;;;;;;5077332;28;20341;-69
2022/01/03 10:08:05;;;;;;;1.27;0.73;;;10.10;99.90;;;;;;5076359;28;20703;-71
2022/01/03 10:10:32;;;;;;;0.75;0.60;;;10.10;99.90;;;;;;5076650;28;20283;-69
2022/01/03 10:13:01;;;;;;;1.40;0.80;;;10.00;99.90;;;;;;5076653;28;20196;-69
2022/01/03 10:15:28;;;;;;;1.20;0.98;;;10.00;99.90;;;;;;5076399;28;20295;-68
2022/01/03 10:17:55;;;;;;;2.40;0.77;;;;;;;;;;5075721;28;20520;-72
2022/01/03 10:20:24;;;;;;;1.88;1.05;;;10.10;99.90;;;;;;5076690;28;20569;-71
2022/01/03 10:22:51;;;;;;;2.33;0.98;;;10.20;99.90;;;;;;5076188;28;20223;-68
2022/01/03 10:25:22;;;;;;;0.93;0.60;;;10.20;99.90;;;;;;5077078;28;20307;-73
2022/01/03 10:27:53;;;;;;;0.57;0.57;;;10.20;99.90;;;;;;5076465;28;20238;-71
2022/01/03 10:30:36;;;;;;;2.92;0.80;;;10.30;99.90;;;;;;5076025;28;20185;-68
2022/01/03 10:33:04;;;;;;;0.95;0.65;;;10.20;99.90;;;;;;5076128;28;20319;-68
2022/01/03 10:35:37;;;;;;;0.52;0.50;;;10.30;99.90;;;;;;5075929;28;20276;-68
2022/01/03 10:38:04;;;;;;;1.13;0.88;;;10.30;99.90;;;;;;5075718;28;20653;-68
2022/01/03 10:40:31;;;;;;;0.95;0.73;;;10.30;99.90;;;;;;5075906;28;20204;-68
2022/01/03 10:43:12;;;;;;;0.73;0.63;;;10.30;99.90;;;;;;5077379;28;20216;-71
2022/01/03 10:45:42;;;;;;;0.60;0.60;;;10.40;99.90;;;;;;5078130;28;20216;-71
2022/01/03 10:48:28;;;;;;;2.05;0.90;;;10.40;99.90;;;;;;5080444;28;20654;-68
2022/01/03 10:50:56;;;;;;;2.50;0.80;;;10.30;99.90;;;;;;5079672;28;20192;-68
2022/01/03 10:53:34;;;;;;;1.33;1.30;;;10.30;99.90;;;;;;5079388;28;20623;-68
2022/01/03 10:56:26;;;;;;;2.03;0.95;;;10.30;99.90;;;;;;5079411;28;20306;-73
2022/01/03 10:58:54;;;;;;;1.58;0.90;;;10.30;99.90;;;;;;5080194;28;20199;-69
2022/01/03 11:01:24;;;;;;;2.58;1.13;;;10.30;99.90;;;;;;5079267;28;20219;-69
2022/01/03 11:03:53;;;;;;;1.73;1.08;;;10.20;99.90;;;;;;5080736;28;20220;-68
2022/01/03 11:06:35;;;;;;;2.30;0.88;;;10.20;99.90;;;;;;5079307;28;20248;-70
2022/01/03 11:11:59;;;;;;;0.70;0.70;;;10.30;99.90;;;;;;5036394;28;20193;-70
2022/01/03 11:14:38;;;;;;;0.60;0.60;;;10.30;99.90;;;;;;5069344;28;20196;-71
2022/01/03 11:17:25;;;;;;;1.55;0.80;;;10.40;99.90;;;;;;5078852;28;20207;-70
2022/01/03 11:19:54;;;;;;;1.38;0.93;;;10.50;99.90;;;;;;5079331;28;20199;-69
2022/01/03 11:22:42;;;;;;;3.20;0.80;;;10.60;99.90;;;;;;5079821;28;20195;-69
2022/01/03 11:25:11;;;;;;;1.25;0.80;;;10.60;99.90;;;;;;5078926;28;20574;-68
2022/01/03 11:27:40;;;;;;;2.30;0.70;;;10.70;99.90;;;;;;5078951;28;20203;-68
2022/01/03 11:30:11;;;;;;;1.00;0.80;;;10.70;99.90;;;;;;5076064;28;20196;-68
2022/01/03 11:32:43;;;;;;;0.65;0.65;;;10.70;99.90;;;;;;5075188;28;20195;-68
2022/01/03 11:35:11;;;;;;;1.73;1.20;;;10.70;99.90;;;;;;5074846;28;20223;-68
2022/01/03 11:37:41;;;;;;;1.00;0.80;;;10.60;99.90;;;;;;5074969;28;20196;-68
2022/01/03 11:40:11;;;;;;;0.60;0.60;;;10.60;99.90;;;;;;5074547;28;20181;-68
2022/01/03 11:42:38;;;;;;;0.65;0.65;;;10.60;99.90;;;;;;5074389;28;20279;-68
2022/01/03 11:45:06;;;;;;;5.03;1.00;;;10.70;99.90;;;;;;5074421;28;20258;-68
2022/01/03 11:47:33;;;;;;;2.53;1.00;;;10.70;99.90;;;;;;5074581;28;20226;-68
2022/01/03 11:50:02;;;;;;;0.90;0.77;;;10.60;99.90;;;;;;5074580;28;20624;-68
2022/01/03 11:52:30;;;;;;;0.80;0.80;;;10.60;99.90;;;;;;5074233;28;20562;-68
2022/01/03 11:54:58;;;;;;;1.23;0.85;;;10.70;99.90;;;;;;5074021;28;20717;-68
2022/01/03 11:57:39;;;;;;;2.97;0.95;;;10.70;99.90;;;;;;5074303;28;20207;-68
2022/01/03 12:05:57;;;;;;;0.93;0.88;;;10.70;99.90;;;;;;5074262;28;20341;-68
2022/01/03 12:08:26;;;;;;;5.85;1.55;;;10.70;99.90;;;;;;5074251;28;20184;-68
2022/01/03 12:10:53;;;;;;;3.05;1.02;;;10.70;99.90;;;;;;5074196;28;20284;-68
2022/01/03 12:13:21;;;;;;;2.88;0.63;;;10.70;99.90;;;;;;5073962;28;20208;-68
2022/01/03 12:16:04;;;;;;;1.38;0.90;;;10.80;99.90;;;;;;5074019;28;20782;-68
2022/01/03 12:18:32;;;;;;;2.72;0.90;;;10.80;99.90;;;;;;5073852;28;20274;-69
2022/01/03 12:21:00;;;;;;;1.92;0.93;;;10.80;99.90;;;;;;5073802;28;20206;-68
2022/01/03 12:23:38;;;;;;;2.03;0.88;;;10.90;99.90;;;;;;5074352;28;20227;-68
2022/01/03 12:26:13;;;;;;;1.25;0.90;;;11.00;99.90;;;;;;5073858;28;20302;-66
2022/01/03 12:29:15;;;;;;;1.13;0.80;;;11.00;99.90;;;;;;5073515;28;20706;-67
2022/01/03 12:32:13;;;;;;;3.47;0.82;;;11.00;99.90;;;;;;5068750;28;20210;-67
2022/01/03 12:34:40;;;;;;;1.83;1.10;;;10.90;99.90;;;;;;5074657;28;20196;-67
2022/01/03 12:37:20;;;;;;;0.95;0.88;;;11.00;99.90;;;;;;5073880;28;20231;-67
2022/01/03 12:40:10;;;;;;;1.83;1.00;;;10.90;99.90;;;;;;5073940;28;20271;-68
2022/01/03 12:42:53;;;;;;;2.92;1.17;;;10.90;99.90;;;;;;5074044;28;20282;-68
2022/01/03 12:45:54;;;;;;;0.93;0.80;;;11.00;99.90;;;;;;5071695;28;20273;-68
2022/01/03 12:48:23;;;;;;;2.80;0.95;;;11.00;99.90;;;;;;5071161;28;20209;-68
2022/01/03 12:51:11;;;;;;;2.53;0.93;;;10.80;99.90;;;;;;5073693;28;20211;-68
2022/01/03 12:53:41;;;;;;;2.40;0.90;;;10.70;99.90;;;;;;5073773;28;20270;-68
2022/01/03 12:56:11;;;;;;;1.48;0.90;;;10.80;99.90;;;;;;5073410;28;20216;-68
2022/01/03 12:58:40;;;;;;;1.40;0.75;;;10.70;99.90;;;;;;5073686;28;20303;-68
2022/01/03 13:01:10;;;;;;;1.85;1.10;;;10.70;99.90;;;;;;5073596;28;20204;-68
2022/01/03 13:03:49;;;;;;;1.13;0.80;;;10.70;99.90;;;;;;5073343;28;20654;-67
2022/01/03 13:06:18;;;;;;;1.27;0.70;;;10.70;99.90;;;;;;5073246;28;20629;-67
2022/01/03 13:09:09;;;;;;;1.35;0.52;;;10.70;99.90;;;;;;5073182;28;20687;-68
2022/01/03 13:11:37;;;;;;;2.42;1.00;;;10.70;99.90;;;;;;5073444;28;20219;-68
2022/01/03 13:14:10;;;;;;;1.60;0.77;;;10.70;99.90;;;;;;5074687;28;20546;-68
2022/01/03 13:16:38;;;;;;;0.80;0.65;;;10.80;99.90;;;;;;5077332;28;20646;-68
2022/01/03 13:19:07;;;;;;;2.60;0.85;;;10.70;99.90;;;;;;5077249;28;20722;-68
2022/01/03 13:21:36;;;;;;;1.02;0.70;;;10.70;99.90;;;;;;5077538;28;20200;-68
2022/01/03 13:24:12;;;;;;;2.95;0.80;;;10.70;99.90;;;;;;5077541;28;20220;-68
2022/01/03 13:26:57;;;;;;;1.25;0.65;;;10.70;99.90;;;;;;5076974;28;20230;-68
2022/01/03 13:29:25;;;;;;;1.35;0.88;;;10.70;99.90;;;;;;5077109;28;20554;-68
2022/01/03 13:31:53;;;;;;;2.75;1.55;;;10.70;99.90;;;;;;5077302;28;20287;-67
2022/01/03 13:34:22;;;;;;;0.80;0.80;;;10.70;99.90;;;;;;5077354;28;20192;-68
2022/01/03 13:36:49;;;;;;;1.85;0.77;;;10.70;99.90;;;;;;5076950;28;20598;-68
2022/01/03 13:39:21;;;;;;;2.85;0.80;;;10.70;99.90;;;;;;5077097;28;20207;-67
2022/01/03 13:41:50;;;;;;;1.08;0.95;;;10.60;99.90;;;;;;5077055;28;20184;-67
2022/01/03 13:50:07;;;;;;;1.58;0.77;;;10.50;99.90;;;;;;5076929;28;20606;-68
2022/01/03 13:52:37;;;;;;;1.52;0.93;;;10.50;99.90;;;;;;5076816;28;20203;-68
2022/01/03 13:55:16;;;;;;;1.15;1.15;;;10.40;99.90;;;;;;5076324;28;20213;-68
2022/01/03 13:57:45;;;;;;;1.85;1.27;;;10.50;99.90;;;;;;5076559;28;20287;-68
2022/01/03 14:00:16;;;;;;;1.75;1.00;;;10.50;99.90;;;;;;5076863;28;20295;-68
2022/01/03 14:02:44;;;;;;;1.70;0.70;;;10.50;99.90;;;;;;5076278;28;20546;-68
2022/01/03 14:05:12;;;;;;;0.95;0.70;;;10.50;99.90;;;;;;5076636;28;20224;-68
2022/01/03 14:07:51;;;;;;;0.80;0.70;;;10.50;99.90;;;;;;5076074;28;20206;-68
2022/01/03 14:10:20;;;;;;;0.70;0.70;;;10.50;99.90;;;;;;5076439;28;20282;-68
2022/01/03 14:12:52;;;;;;;1.30;0.73;;;10.50;99.90;;;;;;5076505;28;20219;-68
2022/01/03 14:15:19;;;;;;;0.77;0.77;;;10.40;99.90;;;;;;5076394;28;20220;-68
2022/01/03 14:17:49;;;;;;;0.80;0.80;;;10.40;99.90;;;;;;5076020;28;20746;-68
2022/01/03 14:20:19;;;;;;;0.68;0.68;;;10.40;99.90;;;;;;5101467;22;20635;-68
2022/01/03 14:22:46;;;;;;;0.60;0.60;;;10.30;99.90;;;;;;5101737;28;20223;-67
2022/01/03 14:25:15;;;;;;;1.33;0.70;;;10.30;99.90;;;;;;5109763;28;20230;-67
2022/01/03 14:27:46;;;;;;;1.45;0.77;;;10.30;99.90;;;;;;5112174;28;20199;-67
2022/01/03 14:30:22;;;;;;;0.68;0.45;;;10.30;99.90;;;;;;5112065;28;20222;-67
2022/01/03 14:32:53;;;;;;;0.73;0.70;;;10.30;99.90;;;;;;5112664;28;20641;-67
2022/01/03 14:35:35;;;;;;;0.70;0.70;;;10.30;99.90;;;;;;5114783;28;20208;-67
2022/01/03 14:38:05;;;;;;;0.52;0.52;;;10.30;99.90;;;;;;5114749;28;20191;-67
2022/01/03 14:40:47;;;;;;;0.70;0.70;;;10.20;99.90;;;;;;5100896;28;20223;-67
2022/01/03 14:43:22;;;;;;;0.88;0.68;;;10.20;99.90;;;;;;5096856;28;20274;-67
2022/01/03 14:45:50;;;;;;;0.80;0.60;;;10.20;99.90;;;;;;5096278;28;20211;-67
2022/01/03 14:48:18;;;;;;;0.80;0.80;;;10.20;99.90;;;;;;5095774;28;20658;-67
2022/01/03 14:50:45;;;;;;;0.77;0.77;;;10.20;99.90;;;;;;5095928;28;20215;-67
2022/01/03 14:53:12;;;;;;;0.77;0.77;;;10.10;99.90;;;;;;5096009;28;20200;-67
2022/01/03 14:55:41;;;;;;;1.10;0.70;;;10.10;99.90;;;;;;5096063;28;20195;-67
2022/01/03 14:58:09;;;;;;;1.88;0.90;;;10.00;99.90;;;;;;5095981;28;20238;-67
2022/01/03 15:00:39;;;;;;;0.55;0.55;;;10.00;99.90;;;;;;5095800;28;20222;-67
2022/01/03 15:03:06;;;;;;;2.67;0.90;;;10.00;99.90;;;;;;5095483;28;20203;-66
2022/01/03 15:05:34;;;;;;;0.85;0.85;;;10.00;99.90;;;;;;5095756;28;20238;-66
2022/01/03 15:08:02;;;;;;;1.80;0.75;;;10.00;99.90;;;;;;5095745;28;20195;-66
2022/01/03 15:10:33;;;;;;;1.63;1.27;;;9.90;99.90;;;;;;5095430;28;20268;-66
2022/01/03 15:13:00;;;;;;;1.42;0.82;;;9.90;99.90;;;;;;5095700;28;20286;-66
2022/01/03 15:15:28;;;;;;;1.10;0.80;;;9.80;99.90;;;;;;5095525;28;20191;-66
2022/01/03 15:17:57;;;;;;;0.73;0.73;;;9.80;99.90;;;;;;5095440;28;20206;-66
2022/01/03 15:20:26;;;;;;;1.38;0.90;;;9.80;99.90;;;;;;5095178;28;20214;-66
2022/01/03 15:22:53;;;;;;;1.58;0.90;;;9.70;99.90;;;;;;5095270;28;20184;-66
2022/01/03 15:25:24;;;;;;;0.90;0.90;;;9.70;99.90;;;;;;5095087;28;20231;-66
2022/01/03 15:27:51;;;;;;;2.67;0.70;;;9.60;99.90;;;;;;5095402;28;20233;-66
2022/01/03 15:30:22;;;;;;;0.82;0.60;;;9.60;99.90;;;;;;5095327;28;20199;-66
2022/01/03 15:32:49;;;;;;;1.17;1.00;;;9.60;99.90;;;;;;5095367;28;20183;-66
2022/01/03 15:35:18;;;;;;;0.90;0.90;;;9.60;99.90;;;;;;5095158;28;20278;-66
2022/01/03 15:37:45;;;;;;;1.42;1.10;;;9.60;99.90;;;;;;5093746;28;20765;-66
2022/01/03 15:40:13;;;;;;;1.48;1.05;;;9.50;99.90;;;;;;5094716;28;20733;-73
2022/01/03 15:42:40;;;;;;;3.05;1.05;;;9.50;99.90;;;;;;5094816;28;20644;-66
2022/01/03 15:45:07;;;;;;;1.10;1.08;;;9.50;99.90;;;;;;5094885;28;20229;-66
2022/01/03 15:47:35;;;;;;;3.20;1.50;;;9.40;99.90;;;;;;5094875;28;20289;-66
2022/01/03 15:50:02;;;;;;;0.93;0.80;;;9.40;99.90;;;;;;5094554;28;20667;-67
2022/01/03 15:52:30;;;;;;;1.98;1.00;;;9.40;99.90;;;;;;5094615;28;20247;-67
2022/01/03 15:54:57;;;;;;;2.13;1.15;;;9.30;99.90;;;;;;5094301;28;20702;-67
2022/01/03 15:57:23;;;;;;;1.05;0.70;;;9.30;99.90;;;;;;5094340;28;20644;-67
2022/01/03 15:59:50;;;;;;;1.13;0.80;;;9.30;99.90;;;;;;5094369;28;20708;-67
2022/01/03 16:02:17;;;;;;;0.90;0.90;;;9.20;99.90;;;;;;5094132;28;20254;-68
2022/01/03 16:04:44;;;;;;;1.30;0.95;;;9.20;99.90;;;;;;5094126;28;20306;-68
2022/01/03 16:07:11;;;;;;;3.33;1.50;;;9.10;99.90;;;;;;5094713;28;20199;-68
2022/01/03 16:09:39;;;;;;;1.23;1.05;;;9.00;99.90;;;;;;5094527;28;20290;-68
2022/01/03 16:12:07;;;;;;;1.98;1.10;;;9.00;99.90;;;;;;5094204;28;20329;-68
2022/01/03 16:14:33;;;;;;;2.47;1.55;;;8.90;99.90;;;;;;5094576;28;20199;-67
2022/01/03 16:17:00;;;;;;;1.50;1.15;;;9.00;99.90;;;;;;5094334;28;20238;-67
2022/01/03 16:19:27;;;;;;;1.27;1.17;;;8.90;99.90;;;;;;5094467;28;20203;-68
2022/01/03 16:21:54;;;;;;;1.98;1.08;;;8.90;99.90;;;;;;5093964;28;20258;-68
2022/01/03 16:24:21;;;;;;;1.63;1.13;;;8.90;99.90;;;;;;5094236;28;20290;-68
2022/01/03 16:26:51;;;;;;;2.00;1.90;;;8.80;99.90;;;;;;5094194;28;20286;-67
2022/01/03 16:29:19;;;;;;;1.83;1.50;;;8.80;99.90;;;;;;5094185;28;20194;-67
2022/01/03 16:31:46;;;;;;;3.05;1.60;;;8.80;99.90;;;;;;5093820;28;20269;-67
2022/01/03 16:34:14;;;;;;;1.85;1.38;;;8.80;99.90;;;;;;5093929;28;20294;-67
2022/01/03 16:36:41;;;;;;;2.80;1.50;;;8.80;99.90;;;;;;5094017;28;20244;-67
2022/01/03 16:39:09;;;;;;;4.78;1.55;;;8.80;99.90;;;;;;5094039;28;20289;-68
2022/01/03 16:41:35;;;;;;;4.82;1.92;;;8.70;99.90;;;;;;5094630;28;20689;-67
2022/01/03 16:44:05;;;;;;;4.50;1.90;;;8.70;99.90;;;;;;5094270;28;20196;-68
2022/01/03 16:46:32;;;;;;;1.92;1.40;;;8.70;99.90;;;;;;5093824;28;20219;-68
2022/01/03 16:48:59;;;;;;;2.67;1.98;;;8.70;99.90;;;;;;5093402;28;20199;-68
2022/01/03 16:51:26;;;;;;;2.45;1.80;;;8.70;99.90;;;;;;5093439;28;20219;-68
2022/01/03 16:53:53;;;;;;;1.92;1.83;;;8.60;99.90;;;;;;5093739;28;20214;-67
2022/01/03 16:56:20;;;;;;;1.75;1.20;;;8.60;99.90;;;;;;5093723;28;20203;-67
2022/01/03 16:58:47;;;;;;;4.22;1.30;;;8.60;99.90;;;;;;5093756;28;20206;-67
2022/01/03 17:01:15;;;;;;;3.00;1.77;;;8.60;99.90;;;;;;5093926;28;20309;-67
2022/01/03 17:03:42;;;;;;;1.10;1.10;;;8.50;99.90;;;;;;5093591;28;20203;-67
2022/01/03 17:06:09;;;;;;;1.50;1.40;;;8.50;99.90;;;;;;5093559;28;20302;-66
2022/01/03 17:08:36;;;;;;;1.30;1.17;;;8.50;99.90;;;;;;5093297;28;20205;-67
2022/01/03 17:11:02;;;;;;;0.90;0.90;;;8.50;99.90;;;;;;5093333;28;20255;-67
2022/01/03 17:13:30;;;;;;;1.10;1.00;;;8.60;99.90;;;;;;5093621;28;20249;-67
2022/01/03 17:15:58;;;;;;;1.02;0.88;;;8.60;99.90;;;;;;5093273;28;20230;-67
2022/01/03 17:18:26;;;;;;;1.58;0.93;;;8.70;99.90;;;;;;5093190;28;20243;-67
2022/01/03 17:20:54;;;;;;;0.70;0.70;;;8.70;99.90;;;;;;5093256;28;20241;-67
2022/01/03 17:23:21;;;;;;;2.97;1.00;;;8.80;99.90;;;;;;5093309;28;20222;-67
2022/01/03 17:25:48;;;;;;;0.95;0.60;;;8.80;99.90;;;;;;5093341;28;20662;-68
2022/01/03 17:28:16;;;;;;;0.70;0.68;;;8.90;99.90;;;;;;5093553;28;20203;-68
2022/01/03 17:30:42;;;;;;;0.82;0.60;;;8.90;99.90;;;;;;5093307;28;20226;-68
2022/01/03 17:33:10;;;;;;;2.58;0.60;;;9.00;99.90;;;;;;5093454;28;20202;-69
2022/01/03 17:35:39;;;;;;;0.85;0.50;;;9.00;99.90;;;;;;5093638;28;20199;-70
2022/01/03 17:38:06;;;;;;;0.60;0.60;;;9.00;99.90;;;;;;5093688;28;20286;-67